sensor_id;sensor_type;location;lat;lon;timestamp;P1;P2;P0
82823;PMS5003;72575;46.834;-71.234;2024-01-15T00:01:45;3.67;3.67;1.61
82823;PMS5003;72575;46.834;-71.234;2024-01-15T00:04:10;8.56;8.56;5.22
82823;PMS5003;72575;46.834;-71.234;2024-01-15T00:06:36;5.28;4.33;2.17
82823;PMS5003;72575;46.834;-71.234;2024-01-15T00:09:01;4.11;3.28;1.83
82823;PMS5003;72575;46.834;-71.234;2024-01-15T00:11:26;11.61;8.56;3.89
82823;PMS5003;72575;46.834;-71.234;2024-01-15T00:13:53;8.83;8.83;4.44
82823;PMS5003;72575;46.834;-71.234;2024-01-15T00:16:18;7.47;6.11;2.95
82823;PMS5003;72575;46.834;-71.234;2024-01-15T00:18:43;11.56;9.56;5.17
82823;PMS5003;72575;46.834;-71.234;2024-01-15T00:21:07;8.61;8.11;4.28
82823;PMS5003;72575;46.834;-71.234;2024-01-15T00:23:33;4.78;4.33;2.17
82823;PMS5003;72575;46.834;-71.234;2024-01-15T00:25:59;6.89;6.06;2.72
82823;PMS5003;72575;46.834;-71.234;2024-01-15T00:28:26;6.56;6.17;1.67
82823;PMS5003;72575;46.834;-71.234;2024-01-15T00:30:50;3.83;3.83;2.39
82823;PMS5003;72575;46.834;-71.234;2024-01-15T00:33:17;0.95;0.95;0.84
82823;PMS5003;72575;46.834;-71.234;2024-01-15T00:35:40;2.17;2.17;1.06
82823;PMS5003;72575;46.834;-71.234;2024-01-15T00:38:07;5.61;2.83;0.94
82823;PMS5003;72575;46.834;-71.234;2024-01-15T00:40:34;2.39;1;0.83
82823;PMS5003;72575;46.834;-71.234;2024-01-15T00:42:57;3.06;1.06;0.89
82823;PMS5003;72575;46.834;-71.234;2024-01-15T00:45:22;3.78;3.33;1
82823;PMS5003;72575;46.834;-71.234;2024-01-15T00:48:00;1.95;1.95;1
82823;PMS5003;72575;46.834;-71.234;2024-01-15T00:50:26;1.63;0.89;0.42
82823;PMS5003;72575;46.834;-71.234;2024-01-15T00:52:52;2;0.67;0
82823;PMS5003;72575;46.834;-71.234;2024-01-15T00:55:17;2.72;1;0.5
82823;PMS5003;72575;46.834;-71.234;2024-01-15T00:57:43;0;0;0
82823;PMS5003;72575;46.834;-71.234;2024-01-15T01:00:09;3.78;2.33;0
82823;PMS5003;72575;46.834;-71.234;2024-01-15T01:02:31;1;0.94;0.06
82823;PMS5003;72575;46.834;-71.234;2024-01-15T01:05:02;1.89;1.74;0.53
82823;PMS5003;72575;46.834;-71.234;2024-01-15T01:07:25;2.89;2.89;1.11
82823;PMS5003;72575;46.834;-71.234;2024-01-15T01:09:49;1;1;0
82823;PMS5003;72575;46.834;-71.234;2024-01-15T01:12:16;2.06;1.89;0.89
82823;PMS5003;72575;46.834;-71.234;2024-01-15T01:14:42;3.72;2.33;0.94
82823;PMS5003;72575;46.834;-71.234;2024-01-15T01:17:06;3.06;2.06;1
82823;PMS5003;72575;46.834;-71.234;2024-01-15T01:19:30;3.11;3.11;2.22
82823;PMS5003;72575;46.834;-71.234;2024-01-15T01:21:58;2.89;2.89;0
82823;PMS5003;72575;46.834;-71.234;2024-01-15T01:24:23;2.44;1.33;0.5
82823;PMS5003;72575;46.834;-71.234;2024-01-15T01:26:47;0.89;0.89;0
82823;PMS5003;72575;46.834;-71.234;2024-01-15T01:29:12;0.94;0.67;0
82823;PMS5003;72575;46.834;-71.234;2024-01-15T01:31:42;1.67;1;0
82823;PMS5003;72575;46.834;-71.234;2024-01-15T01:34:02;1;0.61;0
82823;PMS5003;72575;46.834;-71.234;2024-01-15T01:36:29;0.78;0.78;0
82823;PMS5003;72575;46.834;-71.234;2024-01-15T01:38:55;0;0;0
82823;PMS5003;72575;46.834;-71.234;2024-01-15T01:41:19;0;0;0
82823;PMS5003;72575;46.834;-71.234;2024-01-15T01:43:46;0;0;0
82823;PMS5003;72575;46.834;-71.234;2024-01-15T01:46:10;0.5;0.5;0.5
82823;PMS5003;72575;46.834;-71.234;2024-01-15T01:48:36;0.56;0.56;0
82823;PMS5003;72575;46.834;-71.234;2024-01-15T01:51:02;6.22;3.17;2
82823;PMS5003;72575;46.834;-71.234;2024-01-15T01:53:27;9.25;6.65;3.1
82823;PMS5003;72575;46.834;-71.234;2024-01-15T01:55:53;0.47;0.05;0
82823;PMS5003;72575;46.834;-71.234;2024-01-15T01:58:18;0.5;0.5;0
82823;PMS5003;72575;46.834;-71.234;2024-01-15T02:00:42;1.22;0.78;0.78
82823;PMS5003;72575;46.834;-71.234;2024-01-15T02:03:08;1.22;1.22;0.39
82823;PMS5003;72575;46.834;-71.234;2024-01-15T02:05:35;0.9;0;0
82823;PMS5003;72575;46.834;-71.234;2024-01-15T02:08:00;0;0;0
82823;PMS5003;72575;46.834;-71.234;2024-01-15T02:10:24;1;1;0
82823;PMS5003;72575;46.834;-71.234;2024-01-15T02:12:49;0.6;0.6;0
82823;PMS5003;72575;46.834;-71.234;2024-01-15T02:15:15;1;0.06;0
82823;PMS5003;72575;46.834;-71.234;2024-01-15T02:17:56;0.1;0.1;0
82823;PMS5003;72575;46.834;-71.234;2024-01-15T02:20:09;1.56;1.56;0.83
82823;PMS5003;72575;46.834;-71.234;2024-01-15T02:22:32;0;0;0
82823;PMS5003;72575;46.834;-71.234;2024-01-15T02:24:56;0.83;0.83;0.5
82823;PMS5003;72575;46.834;-71.234;2024-01-15T02:27:23;0.5;0.5;0
82823;PMS5003;72575;46.834;-71.234;2024-01-15T02:29:48;1;1;0
82823;PMS5003;72575;46.834;-71.234;2024-01-15T02:32:13;0.63;0;0
82823;PMS5003;72575;46.834;-71.234;2024-01-15T02:34:38;0.19;0.19;0
82823;PMS5003;72575;46.834;-71.234;2024-01-15T02:37:03;0;0;0
82823;PMS5003;72575;46.834;-71.234;2024-01-15T02:39:30;0.95;0.95;0
82823;PMS5003;72575;46.834;-71.234;2024-01-15T02:41:56;0.1;0.1;0
82823;PMS5003;72575;46.834;-71.234;2024-01-15T02:44:20;3.62;3.1;0.24
82823;PMS5003;72575;46.834;-71.234;2024-01-15T02:46:47;0.05;0.05;0.05
82823;PMS5003;72575;46.834;-71.234;2024-01-15T02:49:12;0.9;0.9;0
82823;PMS5003;72575;46.834;-71.234;2024-01-15T02:51:36;1.76;1;0
82823;PMS5003;72575;46.834;-71.234;2024-01-15T02:54:03;3;3;1
82823;PMS5003;72575;46.834;-71.234;2024-01-15T02:56:28;1.86;0.38;0
82823;PMS5003;72575;46.834;-71.234;2024-01-15T02:58:52;3.48;1;0.62
82823;PMS5003;72575;46.834;-71.234;2024-01-15T03:01:21;0.52;0.24;0
82823;PMS5003;72575;46.834;-71.234;2024-01-15T03:03:45;1.18;1.18;0
82823;PMS5003;72575;46.834;-71.234;2024-01-15T03:06:10;0.67;0.67;0
82823;PMS5003;72575;46.834;-71.234;2024-01-15T03:08:34;13.2;12.55;6
82823;PMS5003;72575;46.834;-71.234;2024-01-15T03:11:00;0.81;0;0
82823;PMS5003;72575;46.834;-71.234;2024-01-15T03:13:25;4.57;4.57;2.38
82823;PMS5003;72575;46.834;-71.234;2024-01-15T03:15:49;2.05;2.05;1
82823;PMS5003;72575;46.834;-71.234;2024-01-15T03:18:16;0.62;0.24;0
82823;PMS5003;72575;46.834;-71.234;2024-01-15T03:20:42;1.18;0.5;0
82823;PMS5003;72575;46.834;-71.234;2024-01-15T03:23:08;1.48;1.48;0.38
82823;PMS5003;72575;46.834;-71.234;2024-01-15T03:25:31;1.19;0.81;0
82823;PMS5003;72575;46.834;-71.234;2024-01-15T03:27:56;0.52;0.52;0
82823;PMS5003;72575;46.834;-71.234;2024-01-15T03:30:22;0.76;0;0
82823;PMS5003;72575;46.834;-71.234;2024-01-15T03:32:46;0.67;0.67;0
82823;PMS5003;72575;46.834;-71.234;2024-01-15T03:35:14;0;0;0
82823;PMS5003;72575;46.834;-71.234;2024-01-15T03:37:38;1.64;0.77;0
82823;PMS5003;72575;46.834;-71.234;2024-01-15T03:40:06;0.38;0.38;0
82823;PMS5003;72575;46.834;-71.234;2024-01-15T03:42:31;1.14;0.57;0
82823;PMS5003;72575;46.834;-71.234;2024-01-15T03:44:54;0;0;0
82823;PMS5003;72575;46.834;-71.234;2024-01-15T03:47:22;0.81;0;0
82823;PMS5003;72575;46.834;-71.234;2024-01-15T03:49:46;0;0;0
82823;PMS5003;72575;46.834;-71.234;2024-01-15T03:52:10;0.1;0;0
82823;PMS5003;72575;46.834;-71.234;2024-01-15T03:54:39;0;0;0
82823;PMS5003;72575;46.834;-71.234;2024-01-15T03:57:04;0;0;0
82823;PMS5003;72575;46.834;-71.234;2024-01-15T03:59:30;0;0;0
82823;PMS5003;72575;46.834;-71.234;2024-01-15T04:01:54;0.24;0;0
82823;PMS5003;72575;46.834;-71.234;2024-01-15T04:04:21;0;0;0
82823;PMS5003;72575;46.834;-71.234;2024-01-15T04:06:45;0.62;0.62;0
82823;PMS5003;72575;46.834;-71.234;2024-01-15T04:09:13;0;0;0
82823;PMS5003;72575;46.834;-71.234;2024-01-15T04:11:38;0;0;0
82823;PMS5003;72575;46.834;-71.234;2024-01-15T04:14:00;0;0;0
82823;PMS5003;72575;46.834;-71.234;2024-01-15T04:16:27;0;0;0
82823;PMS5003;72575;46.834;-71.234;2024-01-15T04:18:53;0.05;0.05;0
82823;PMS5003;72575;46.834;-71.234;2024-01-15T04:21:20;0;0;0
82823;PMS5003;72575;46.834;-71.234;2024-01-15T04:23:43;0;0;0
82823;PMS5003;72575;46.834;-71.234;2024-01-15T04:26:09;0.1;0;0
82823;PMS5003;72575;46.834;-71.234;2024-01-15T04:28:34;2.86;0.95;0
82823;PMS5003;72575;46.834;-71.234;2024-01-15T04:31:00;0;0;0
82823;PMS5003;72575;46.834;-71.234;2024-01-15T04:33:25;0;0;0
82823;PMS5003;72575;46.834;-71.234;2024-01-15T04:35:51;0;0;0
82823;PMS5003;72575;46.834;-71.234;2024-01-15T04:38:15;0.62;0;0
82823;PMS5003;72575;46.834;-71.234;2024-01-15T04:40:40;1.14;0.1;0
82823;PMS5003;72575;46.834;-71.234;2024-01-15T04:43:05;0.95;0.38;0
82823;PMS5003;72575;46.834;-71.234;2024-01-15T04:45:32;0.14;0;0
82823;PMS5003;72575;46.834;-71.234;2024-01-15T04:47:58;0;0;0
82823;PMS5003;72575;46.834;-71.234;2024-01-15T04:50:24;1.76;1.48;0.38
82823;PMS5003;72575;46.834;-71.234;2024-01-15T04:52:47;0;0;0
82823;PMS5003;72575;46.834;-71.234;2024-01-15T04:55:13;0;0;0
82823;PMS5003;72575;46.834;-71.234;2024-01-15T04:57:37;0;0;0
82823;PMS5003;72575;46.834;-71.234;2024-01-15T05:00:05;0;0;0
82823;PMS5003;72575;46.834;-71.234;2024-01-15T05:02:29;0.82;0;0
82823;PMS5003;72575;46.834;-71.234;2024-01-15T05:04:56;0.71;0;0
82823;PMS5003;72575;46.834;-71.234;2024-01-15T05:07:20;0.76;0;0
82823;PMS5003;72575;46.834;-71.234;2024-01-15T05:09:47;0;0;0
82823;PMS5003;72575;46.834;-71.234;2024-01-15T05:12:11;0;0;0
82823;PMS5003;72575;46.834;-71.234;2024-01-15T05:14:35;0.48;0.48;0
82823;PMS5003;72575;46.834;-71.234;2024-01-15T05:17:01;0;0;0
82823;PMS5003;72575;46.834;-71.234;2024-01-15T05:19:27;0.45;0;0
82823;PMS5003;72575;46.834;-71.234;2024-01-15T05:21:52;0;0;0
82823;PMS5003;72575;46.834;-71.234;2024-01-15T05:24:19;0;0;0
82823;PMS5003;72575;46.834;-71.234;2024-01-15T05:26:44;0.19;0.19;0.19
82823;PMS5003;72575;46.834;-71.234;2024-01-15T05:29:10;1;0.05;0
82823;PMS5003;72575;46.834;-71.234;2024-01-15T05:31:33;1.48;1;0.52
82823;PMS5003;72575;46.834;-71.234;2024-01-15T05:33:58;2;0.67;0
82823;PMS5003;72575;46.834;-71.234;2024-01-15T05:36:27;1.36;0.45;0
82823;PMS5003;72575;46.834;-71.234;2024-01-15T05:38:50;0.52;0;0
82823;PMS5003;72575;46.834;-71.234;2024-01-15T05:41:16;0;0;0
82823;PMS5003;72575;46.834;-71.234;2024-01-15T05:43:41;0.24;0;0
82823;PMS5003;72575;46.834;-71.234;2024-01-15T05:46:07;0;0;0
82823;PMS5003;72575;46.834;-71.234;2024-01-15T05:48:31;0.67;0.67;0
82823;PMS5003;72575;46.834;-71.234;2024-01-15T05:50:56;0.95;0.95;0
82823;PMS5003;72575;46.834;-71.234;2024-01-15T05:53:24;4.81;4.38;0
82823;PMS5003;72575;46.834;-71.234;2024-01-15T05:55:49;2.38;0.67;0
82823;PMS5003;72575;46.834;-71.234;2024-01-15T05:58:12;2.71;1.48;0.19
82823;PMS5003;72575;46.834;-71.234;2024-01-15T06:00:40;0.52;0.52;0
82823;PMS5003;72575;46.834;-71.234;2024-01-15T06:03:05;0.9;0.9;0
82823;PMS5003;72575;46.834;-71.234;2024-01-15T06:05:30;0;0;0
82823;PMS5003;72575;46.834;-71.234;2024-01-15T06:07:54;0;0;0
82823;PMS5003;72575;46.834;-71.234;2024-01-15T06:10:20;0;0;0
82823;PMS5003;72575;46.834;-71.234;2024-01-15T06:12:48;1;1;0.52
82823;PMS5003;72575;46.834;-71.234;2024-01-15T06:15:13;0.1;0.1;0
82823;PMS5003;72575;46.834;-71.234;2024-01-15T06:17:38;1.48;1.48;0.81
82823;PMS5003;72575;46.834;-71.234;2024-01-15T06:20:03;2.05;2.05;0
82823;PMS5003;72575;46.834;-71.234;2024-01-15T06:22:26;0.52;0.52;0
82823;PMS5003;72575;46.834;-71.234;2024-01-15T06:24:51;2.81;1;0
82823;PMS5003;72575;46.834;-71.234;2024-01-15T06:27:19;1.55;1;0
82823;PMS5003;72575;46.834;-71.234;2024-01-15T06:29:45;2;0.67;0
82823;PMS5003;72575;46.834;-71.234;2024-01-15T06:32:10;2.05;1;0.67
82823;PMS5003;72575;46.834;-71.234;2024-01-15T06:34:35;0.1;0.1;0
82823;PMS5003;72575;46.834;-71.234;2024-01-15T06:37:00;1.76;1;0
82823;PMS5003;72575;46.834;-71.234;2024-01-15T06:39:24;1.76;1.76;0
82823;PMS5003;72575;46.834;-71.234;2024-01-15T06:41:50;2.86;1.1;0
82823;PMS5003;72575;46.834;-71.234;2024-01-15T06:44:17;2.73;1.18;0
82823;PMS5003;72575;46.834;-71.234;2024-01-15T06:46:42;0;0;0
82823;PMS5003;72575;46.834;-71.234;2024-01-15T06:49:09;0.38;0.38;0
82823;PMS5003;72575;46.834;-71.234;2024-01-15T06:51:34;0.48;0.05;0
82823;PMS5003;72575;46.834;-71.234;2024-01-15T06:53:59;2.71;1.76;0.24
82823;PMS5003;72575;46.834;-71.234;2024-01-15T06:56:24;3.24;3;1
82823;PMS5003;72575;46.834;-71.234;2024-01-15T06:58:49;2.38;1;0
82823;PMS5003;72575;46.834;-71.234;2024-01-15T07:01:14;4.64;3;0
82823;PMS5003;72575;46.834;-71.234;2024-01-15T07:03:39;0.38;0.38;0
82823;PMS5003;72575;46.834;-71.234;2024-01-15T07:06:05;3.58;3.26;1.53
82823;PMS5003;72575;46.834;-71.234;2024-01-15T07:08:30;2.29;2.24;0.9
82823;PMS5003;72575;46.834;-71.234;2024-01-15T07:10:56;0.1;0.1;0
82823;PMS5003;72575;46.834;-71.234;2024-01-15T07:13:21;0.38;0.38;0
82823;PMS5003;72575;46.834;-71.234;2024-01-15T07:15:46;3.95;3.1;0.67
82823;PMS5003;72575;46.834;-71.234;2024-01-15T07:18:12;3.95;2.77;0.82
82823;PMS5003;72575;46.834;-71.234;2024-01-15T07:20:37;0.95;0.67;0
82823;PMS5003;72575;46.834;-71.234;2024-01-15T07:23:02;0.62;0.33;0
82823;PMS5003;72575;46.834;-71.234;2024-01-15T07:25:29;1;1;0
82823;PMS5003;72575;46.834;-71.234;2024-01-15T07:27:55;3;0.86;0.52
82823;PMS5003;72575;46.834;-71.234;2024-01-15T07:30:20;2.43;2.05;0.81
82823;PMS5003;72575;46.834;-71.234;2024-01-15T07:32:43;1.38;1;0.1
82823;PMS5003;72575;46.834;-71.234;2024-01-15T07:35:10;2.82;2.82;1
82823;PMS5003;72575;46.834;-71.234;2024-01-15T07:37:34;1.19;1.19;0.67
82823;PMS5003;72575;46.834;-71.234;2024-01-15T07:40:03;3;1.19;0
82823;PMS5003;72575;46.834;-71.234;2024-01-15T07:42:25;0.76;0.76;0
82823;PMS5003;72575;46.834;-71.234;2024-01-15T07:44:52;4.14;4.1;0.95
82823;PMS5003;72575;46.834;-71.234;2024-01-15T07:47:18;2.05;2.05;0
82823;PMS5003;72575;46.834;-71.234;2024-01-15T07:49:48;3.38;3.19;0.9
82823;PMS5003;72575;46.834;-71.234;2024-01-15T07:52:16;2.91;1.5;0
82823;PMS5003;72575;46.834;-71.234;2024-01-15T07:54:41;1;1;0.81
82823;PMS5003;72575;46.834;-71.234;2024-01-15T07:57:05;3.86;3.38;1
82823;PMS5003;72575;46.834;-71.234;2024-01-15T07:59:29;1.1;1;0.33
82823;PMS5003;72575;46.834;-71.234;2024-01-15T08:01:58;1.95;1.19;0
82823;PMS5003;72575;46.834;-71.234;2024-01-15T08:04:20;0;0;0
82823;PMS5003;72575;46.834;-71.234;2024-01-15T08:06:49;2.05;1.77;0.27
82823;PMS5003;72575;46.834;-71.234;2024-01-15T08:09:14;8.76;7.95;1.19
82823;PMS5003;72575;46.834;-71.234;2024-01-15T08:11:39;2.81;2.81;0
82823;PMS5003;72575;46.834;-71.234;2024-01-15T08:14:04;1.4;1;0
82823;PMS5003;72575;46.834;-71.234;2024-01-15T08:16:29;3.86;3.86;1.1
82823;PMS5003;72575;46.834;-71.234;2024-01-15T08:18:54;0.75;0.75;0
82823;PMS5003;72575;46.834;-71.234;2024-01-15T08:21:18;0.38;0.38;0.38
82823;PMS5003;72575;46.834;-71.234;2024-01-15T08:23:46;0.55;0.55;0.14
82823;PMS5003;72575;46.834;-71.234;2024-01-15T08:26:11;5.35;4.9;1
82823;PMS5003;72575;46.834;-71.234;2024-01-15T08:28:36;3.15;3.15;0.95
82823;PMS5003;72575;46.834;-71.234;2024-01-15T08:31:00;0.6;0.6;0
82823;PMS5003;72575;46.834;-71.234;2024-01-15T08:33:25;4.1;3;0
82823;PMS5003;72575;46.834;-71.234;2024-01-15T08:35:51;1.45;1.45;0.55
82823;PMS5003;72575;46.834;-71.234;2024-01-15T08:38:16;3;2.9;1
82823;PMS5003;72575;46.834;-71.234;2024-01-15T08:40:43;2.57;1.86;1.29
82823;PMS5003;72575;46.834;-71.234;2024-01-15T08:43:07;3.65;2.9;1
82823;PMS5003;72575;46.834;-71.234;2024-01-15T08:45:35;2.7;2.7;1.2
82823;PMS5003;72575;46.834;-71.234;2024-01-15T08:47:58;5.1;2.85;1
82823;PMS5003;72575;46.834;-71.234;2024-01-15T08:50:23;3.1;1.9;1.05
82823;PMS5003;72575;46.834;-71.234;2024-01-15T08:52:48;5.5;3.75;1.8
82823;PMS5003;72575;46.834;-71.234;2024-01-15T08:55:16;1.2;1;0.1
82823;PMS5003;72575;46.834;-71.234;2024-01-15T08:57:41;1;1;0.43
82823;PMS5003;72575;46.834;-71.234;2024-01-15T09:25:28;3.95;3.5;1
82823;PMS5003;72575;46.834;-71.234;2024-01-15T09:25:37;2.33;2.33;0.81
82823;PMS5003;72575;46.834;-71.234;2024-01-15T09:25:47;6;4.86;3.05
82823;PMS5003;72575;46.834;-71.234;2024-01-15T09:25:56;4.57;4.57;4
82823;PMS5003;72575;46.834;-71.234;2024-01-15T09:26:03;5.05;5.05;4
82823;PMS5003;72575;46.834;-71.234;2024-01-15T09:26:10;5.9;5.62;2.62
82823;PMS5003;72575;46.834;-71.234;2024-01-15T09:26:18;4.48;4.29;3
82823;PMS5003;72575;46.834;-71.234;2024-01-15T09:26:24;7.43;7.1;6.29
82823;PMS5003;72575;46.834;-71.234;2024-01-15T09:26:32;19.29;19;14.33
82823;PMS5003;72575;46.834;-71.234;2024-01-15T09:27:39;10.43;10.24;6.52
82823;PMS5003;72575;46.834;-71.234;2024-01-15T09:30:05;19.57;19.57;17.38
82823;PMS5003;72575;46.834;-71.234;2024-01-15T09:32:31;10.2;10.2;8.95
82823;PMS5003;72575;46.834;-71.234;2024-01-15T09:34:54;8.55;6.75;5.5
82823;PMS5003;72575;46.834;-71.234;2024-01-15T09:37:20;7.5;7.5;6.45
82823;PMS5003;72575;46.834;-71.234;2024-01-15T09:39:45;9.55;9.1;8.1
82823;PMS5003;72575;46.834;-71.234;2024-01-15T09:42:12;9.1;8.5;7.95
82823;PMS5003;72575;46.834;-71.234;2024-01-15T09:44:38;7.65;7.35;6.1
82823;PMS5003;72575;46.834;-71.234;2024-01-15T09:47:04;6.43;6.43;5.71
82823;PMS5003;72575;46.834;-71.234;2024-01-15T09:49:29;8.81;8.81;4.48
82823;PMS5003;72575;46.834;-71.234;2024-01-15T09:51:55;17.05;17.05;15.2
82823;PMS5003;72575;46.834;-71.234;2024-01-15T09:54:20;8.65;7.3;5.4
82823;PMS5003;72575;46.834;-71.234;2024-01-15T09:56:45;7.75;7;5.4
82823;PMS5003;72575;46.834;-71.234;2024-01-15T09:59:09;4.5;4.5;2.95
82823;PMS5003;72575;46.834;-71.234;2024-01-15T10:01:34;3.6;3.6;2.9
82823;PMS5003;72575;46.834;-71.234;2024-01-15T10:04:00;6.86;4.62;3.43
82823;PMS5003;72575;46.834;-71.234;2024-01-15T10:06:26;4.4;3.15;2.4
82823;PMS5003;72575;46.834;-71.234;2024-01-15T10:08:52;8.19;8.19;5
82823;PMS5003;72575;46.834;-71.234;2024-01-15T10:11:15;5.8;4.85;3.65
82823;PMS5003;72575;46.834;-71.234;2024-01-15T10:13:41;3;1;1
82823;PMS5003;72575;46.834;-71.234;2024-01-15T10:16:07;3;2.85;0.8
82823;PMS5003;72575;46.834;-71.234;2024-01-15T10:18:31;0.9;0.7;0
82823;PMS5003;72575;46.834;-71.234;2024-01-15T10:21:00;2.62;2.62;0.71
82823;PMS5003;72575;46.834;-71.234;2024-01-15T10:23:25;5.05;2.65;1.45
82823;PMS5003;72575;46.834;-71.234;2024-01-15T10:25:50;0.75;0.75;0.25
82823;PMS5003;72575;46.834;-71.234;2024-01-15T10:28:15;2.2;0.9;0.8
82823;PMS5003;72575;46.834;-71.234;2024-01-15T10:30:41;1;1;0.1
82823;PMS5003;72575;46.834;-71.234;2024-01-15T10:33:04;2.3;1.9;0.1
82823;PMS5003;72575;46.834;-71.234;2024-01-15T10:35:31;0.6;0.6;0.45
82823;PMS5003;72575;46.834;-71.234;2024-01-15T10:37:58;1.14;1.14;0
82823;PMS5003;72575;46.834;-71.234;2024-01-15T10:40:22;1.6;1;0.6
82823;PMS5003;72575;46.834;-71.234;2024-01-15T10:42:47;0.4;0.1;0
82823;PMS5003;72575;46.834;-71.234;2024-01-15T10:45:12;2.5;1;0
82823;PMS5003;72575;46.834;-71.234;2024-01-15T10:47:37;1.4;0.6;0
82823;PMS5003;72575;46.834;-71.234;2024-01-15T10:50:02;1.8;1.8;0
82823;PMS5003;72575;46.834;-71.234;2024-01-15T10:52:28;0.5;0.5;0
82823;PMS5003;72575;46.834;-71.234;2024-01-15T10:54:54;1.29;1;0.62
82823;PMS5003;72575;46.834;-71.234;2024-01-15T10:57:20;16.05;14;8
82823;PMS5003;72575;46.834;-71.234;2024-01-15T10:59:44;7.95;5.5;3.55
82823;PMS5003;72575;46.834;-71.234;2024-01-15T11:02:13;5.55;5.55;4.75
82823;PMS5003;72575;46.834;-71.234;2024-01-15T11:04:39;17.05;17.05;16.48
82823;PMS5003;72575;46.834;-71.234;2024-01-15T11:07:05;15.3;13.95;12.95
82823;PMS5003;72575;46.834;-71.234;2024-01-15T11:09:28;16;13.4;12.4
82823;PMS5003;72575;46.834;-71.234;2024-01-15T11:12:06;11.52;11.52;9.33
82823;PMS5003;72575;46.834;-71.234;2024-01-15T11:14:34;7.7;6.75;5.65
82823;PMS5003;72575;46.834;-71.234;2024-01-15T11:16:54;6.75;6;5.3
82823;PMS5003;72575;46.834;-71.234;2024-01-15T11:19:12;8.15;8.15;5.05
82823;PMS5003;72575;46.834;-71.234;2024-01-15T11:21:42;10.2;7.8;5.4
82823;PMS5003;72575;46.834;-71.234;2024-01-15T11:24:06;6.45;6.45;3.7
82823;PMS5003;72575;46.834;-71.234;2024-01-15T11:26:31;5.81;3.86;3.33
82823;PMS5003;72575;46.834;-71.234;2024-01-15T11:28:58;6.95;6.43;3.67
82823;PMS5003;72575;46.834;-71.234;2024-01-15T11:31:25;11.05;8.4;4.8
82823;PMS5003;72575;46.834;-71.234;2024-01-15T11:33:48;11.25;10.4;4.9
82823;PMS5003;72575;46.834;-71.234;2024-01-15T11:36:12;34.5;28.1;14
82823;PMS5003;72575;46.834;-71.234;2024-01-15T11:38:37;9;6.6;1.5
82823;PMS5003;72575;46.834;-71.234;2024-01-15T11:41:02;11.55;5.75;1.2
82823;PMS5003;72575;46.834;-71.234;2024-01-15T11:43:26;4.35;3.1;0.4
82823;PMS5003;72575;46.834;-71.234;2024-01-15T11:45:55;5.9;4.52;0.29
82823;PMS5003;72575;46.834;-71.234;2024-01-15T11:48:21;6.67;6.1;3.48
82823;PMS5003;72575;46.834;-71.234;2024-01-15T11:50:46;7.4;4.5;1.3
82823;PMS5003;72575;46.834;-71.234;2024-01-15T11:53:15;5.8;5.8;1
82823;PMS5003;72575;46.834;-71.234;2024-01-15T11:55:38;4;3.25;1.2
82823;PMS5003;72575;46.834;-71.234;2024-01-15T11:58:00;3.1;3.1;1
82823;PMS5003;72575;46.834;-71.234;2024-01-15T12:00:27;1.19;1.19;0.67
82823;PMS5003;72575;46.834;-71.234;2024-01-15T12:02:52;4.24;2.52;1
82823;PMS5003;72575;46.834;-71.234;2024-01-15T12:05:19;1;1;0.1
82823;PMS5003;72575;46.834;-71.234;2024-01-15T12:07:42;7.47;3.21;0.47
82823;PMS5003;72575;46.834;-71.234;2024-01-15T12:10:09;3;2;0.4
82823;PMS5003;72575;46.834;-71.234;2024-01-15T12:12:39;3.9;3.3;1.15
82823;PMS5003;72575;46.834;-71.234;2024-01-15T12:14:59;3.3;3;0.45
82823;PMS5003;72575;46.834;-71.234;2024-01-15T12:17:24;3.4;3.1;0.95
82823;PMS5003;72575;46.834;-71.234;2024-01-15T12:19:51;2.91;2;0.55
82823;PMS5003;72575;46.834;-71.234;2024-01-15T12:22:17;3;2;0.75
82823;PMS5003;72575;46.834;-71.234;2024-01-15T12:24:42;4.86;3.14;0.95
82823;PMS5003;72575;46.834;-71.234;2024-01-15T12:27:07;4.29;3.19;1.76
82823;PMS5003;72575;46.834;-71.234;2024-01-15T12:29:32;4.19;3.1;1
82823;PMS5003;72575;46.834;-71.234;2024-01-15T12:31:57;7.19;7.19;3
82823;PMS5003;72575;46.834;-71.234;2024-01-15T12:34:22;7.1;5.65;2.9
82823;PMS5003;72575;46.834;-71.234;2024-01-15T12:36:48;4.73;4.68;2.27
82823;PMS5003;72575;46.834;-71.234;2024-01-15T12:39:14;9.9;7.48;3.33
82823;PMS5003;72575;46.834;-71.234;2024-01-15T12:41:40;14.19;11.57;6.67
82823;PMS5003;72575;46.834;-71.234;2024-01-15T12:44:05;15.95;14.95;9.15
82823;PMS5003;72575;46.834;-71.234;2024-01-15T12:46:29;6.57;6.57;3.38
82823;PMS5003;72575;46.834;-71.234;2024-01-15T12:48:55;21.45;18.9;9
82823;PMS5003;72575;46.834;-71.234;2024-01-15T12:51:24;14.89;14.16;4.84
82823;PMS5003;72575;46.834;-71.234;2024-01-15T12:53:45;5.45;4.55;1
82823;PMS5003;72575;46.834;-71.234;2024-01-15T12:56:10;11.3;9.8;3.35
82823;PMS5003;72575;46.834;-71.234;2024-01-15T12:58:38;6.76;5.67;1.76
82823;PMS5003;72575;46.834;-71.234;2024-01-15T13:01:01;9.86;9.86;4.76
82823;PMS5003;72575;46.834;-71.234;2024-01-15T13:03:27;7.95;6.9;4.71
82823;PMS5003;72575;46.834;-71.234;2024-01-15T13:05:51;3.1;3.1;2.52
82823;PMS5003;72575;46.834;-71.234;2024-01-15T13:08:17;4.86;3.76;2.62
82823;PMS5003;72575;46.834;-71.234;2024-01-15T13:10:44;3.82;3.82;3.09
82823;PMS5003;72575;46.834;-71.234;2024-01-15T13:13:10;4.76;3;1.48
82823;PMS5003;72575;46.834;-71.234;2024-01-15T13:15:34;18.81;13.86;8
82823;PMS5003;72575;46.834;-71.234;2024-01-15T13:17:59;42.58;37.89;15.32
82823;PMS5003;72575;46.834;-71.234;2024-01-15T13:20:25;11.33;10;8.05
82823;PMS5003;72575;46.834;-71.234;2024-01-15T13:22:50;14.55;14.25;10.95
82823;PMS5003;72575;46.834;-71.234;2024-01-15T13:25:16;12;11.35;9.25
82823;PMS5003;72575;46.834;-71.234;2024-01-15T13:27:42;7.82;6.64;3.5
82823;PMS5003;72575;46.834;-71.234;2024-01-15T13:30:07;8.71;7.67;5.05
82823;PMS5003;72575;46.834;-71.234;2024-01-15T13:32:33;7.67;6.1;3.1
82823;PMS5003;72575;46.834;-71.234;2024-01-15T13:34:59;7.43;7.43;3.67
82823;PMS5003;72575;46.834;-71.234;2024-01-15T13:37:24;9.1;7.29;3.52
82823;PMS5003;72575;46.834;-71.234;2024-01-15T13:39:50;12.3;12.3;8.3
82823;PMS5003;72575;46.834;-71.234;2024-01-15T13:42:14;35.8;30.95;14.55
82823;PMS5003;72575;46.834;-71.234;2024-01-15T13:44:41;8.55;8.55;3.05
82823;PMS5003;72575;46.834;-71.234;2024-01-15T13:47:07;7.1;3.52;2.05
82823;PMS5003;72575;46.834;-71.234;2024-01-15T13:49:31;5.57;4.48;3
82823;PMS5003;72575;46.834;-71.234;2024-01-15T13:51:55;3.9;3.9;1.76
82823;PMS5003;72575;46.834;-71.234;2024-01-15T13:54:22;8.33;6.1;3.67
82823;PMS5003;72575;46.834;-71.234;2024-01-15T13:56:46;9.9;7.57;3.48
82823;PMS5003;72575;46.834;-71.234;2024-01-15T13:59:13;4.38;4;3
82823;PMS5003;72575;46.834;-71.234;2024-01-15T14:01:37;6.18;6.18;3.36
82823;PMS5003;72575;46.834;-71.234;2024-01-15T14:04:04;8.52;6.1;3
82823;PMS5003;72575;46.834;-71.234;2024-01-15T14:06:29;8.05;7.1;4
82823;PMS5003;72575;46.834;-71.234;2024-01-15T14:08:54;7;6.38;3.62
82823;PMS5003;72575;46.834;-71.234;2024-01-15T14:11:20;15.14;13.29;6.19
82823;PMS5003;72575;46.834;-71.234;2024-01-15T14:13:45;11.14;9.52;4.19
82823;PMS5003;72575;46.834;-71.234;2024-01-15T14:16:09;13.05;12.29;5.81
82823;PMS5003;72575;46.834;-71.234;2024-01-15T14:18:54;10.57;8.24;3.33
82823;PMS5003;72575;46.834;-71.234;2024-01-15T14:21:20;9.36;8.55;4
82823;PMS5003;72575;46.834;-71.234;2024-01-15T14:23:45;8.9;7.95;3.62
82823;PMS5003;72575;46.834;-71.234;2024-01-15T14:26:12;15.38;12.67;4.76
82823;PMS5003;72575;46.834;-71.234;2024-01-15T14:28:35;16.57;12.81;6.24
82823;PMS5003;72575;46.834;-71.234;2024-01-15T14:31:01;8.7;8.2;3.3
82823;PMS5003;72575;46.834;-71.234;2024-01-15T14:33:27;10.14;7.76;4